Gildeskaal — LLDI — position and weather

sailwx.info

Track history (hours):
 
Tides and Currents Weather Stations Pressure Air Temp Water Temp Dewpoint Dewpoint Depression Visibility Wind Speed Wind Dir Waves Ship Positions

Gildeskaal

Last reported at 2016-May-28 10:33 UTC. Time now 2016-May-29 01:56 UTC.
Position N 66°35' E 012°45'.

Length 52 m; draft 3.2 m.

Type: Ship. MMSI: 259680000.

Date/timePositionNaut miles runAvg speedWind from/ knotsBaromVisibWave heightAir tempDewpointWater temp
2016-May-28 10:33N 66°35' E 012°45'6 5.4
2016-May-28 09:30N 66°36' E 012°59'0 0.1
2016-May-28 06:23N 66°36' E 012°59'5 5.5
2016-May-28 05:30N 66°34' E 012°48'3 0.3
2016-May-27 21:06N 66°36' E 012°44'6 8.6
2016-May-27 20:24N 66°36' E 012°58'2 0.6
2016-May-27 17:15N 66°38' E 012°60'4 5.8
2016-May-27 16:30N 66°34' E 012°54'5 1.0
2016-May-27 11:13N 66°36' E 012°41'6 7.4
2016-May-27 10:26N 66°34' E 012°55'7 0.5
2016-May-26 21:32N 66°33' E 013°12'0 0.1
2016-May-26 20:12N 66°33' E 013°11'2 0.6
2016-May-26 17:04N 66°35' E 013°11'1 0.2
2016-May-26 09:07N 66°34' E 013°11'2 0.1
2016-May-25 21:10N 66°36' E 013°12'1 0.2
2016-May-25 16:16N 66°35' E 013°11'2 1.1
2016-May-25 14:28N 66°33' E 013°12'1 0.2
2016-May-25 09:19N 66°33' E 013°13'3 1.7
2016-May-25 07:22N 66°36' E 013°12'20 1.0
2016-May-24 12:28N 66°54' E 013°27'7 7.6
2016-May-24 11:33N 66°60' E 013°38'9 8.3
2016-May-24 10:29N 67°04' E 013°58'2 2.3
2016-May-24 09:33N 67°06' E 013°58'2 2.2
2016-May-24 08:33N 67°08' E 013°59'2 1.8
2016-May-24 07:33N 67°06' E 013°59'2 0.9
2016-May-24 05:31N 67°05' E 014°02'3 3.6
2016-May-24 04:33N 67°08' E 013°59'0 0.0
2016-May-24 03:33N 67°08' E 013°59'0 0.0
2016-May-24 02:33N 67°08' E 013°59'0 0.0
2016-May-24 01:33N 67°08' E 013°59'0 0.0
2016-May-24 00:33N 67°08' E 013°59'0 0.0
2016-May-23 23:33N 67°08' E 013°59'0 0.0
2016-May-23 22:33N 67°08' E 013°59'0 0.0
2016-May-23 21:33N 67°08' E 013°59'0 0.0
2016-May-23 20:33N 67°08' E 013°59'0 0.0
2016-May-23 19:33N 67°08' E 013°59'4 3.6
2016-May-23 18:28N 67°05' E 014°04'3 2.9
2016-May-23 17:33N 67°07' E 013°59'1 1.4
2016-May-23 16:33N 67°05' E 014°00'3 3.0
2016-May-23 15:33N 67°08' E 013°59'4 2.2
2016-May-23 13:32N 67°04' E 014°04'4 3.9
2016-May-23 12:33N 67°08' E 013°59'2 0.6
2016-May-23 09:34N 67°06' E 013°59'3 2.5
2016-May-23 08:33N 67°08' E 013°59'2 1.6
2016-May-23 07:33N 67°07' E 013°59'2 1.0
2016-May-23 05:29N 67°05' E 014°02'3 3.7
2016-May-23 04:33N 67°08' E 013°59'0 0.0
2016-May-23 03:33N 67°08' E 013°59'0 0.0
2016-May-23 02:33N 67°08' E 013°59'0 0.0
2016-May-23 01:33N 67°08' E 013°59'0 0.0
2016-May-23 00:33N 67°08' E 013°59'0 0.0
2016-May-22 23:33N 67°08' E 013°59'0 0.0
2016-May-22 22:33N 67°08' E 013°59'0 0.0
2016-May-22 21:33N 67°08' E 013°59'0 0.0
2016-May-22 20:33N 67°08' E 013°59'0 0.0
2016-May-22 19:33N 67°08' E 013°59'4 4.2
2016-May-22 18:33N 67°04' E 014°04'1 0.8
2016-May-22 17:26N 67°05' E 014°02'2 2.4
2016-May-22 16:33N 67°07' E 013°59'3 2.5
2016-May-22 15:29N 67°05' E 014°04'4 4.2
2016-May-22 14:33N 67°08' E 013°59'1 1.2
2016-May-22 13:33N 67°07' E 013°59'3 0.6
2016-May-22 08:32N 67°05' E 014°03'3 2.5
2016-May-22 07:33N 67°07' E 013°59'1 0.1
2016-May-21 15:33N 67°05' E 014°00'0 0.4
2016-May-21 14:33N 67°05' E 014°01'1 0.2
2016-May-21 09:33N 67°06' E 013°59'3 2.5
2016-May-21 08:33N 67°08' E 013°59'1 1.4
2016-May-21 07:33N 67°07' E 013°59'2 2.0
2016-May-21 06:29N 67°05' E 014°01'3 3.8
2016-May-21 05:33N 67°08' E 013°59'0 0.0
2016-May-21 04:33N 67°08' E 013°59'0 0.0
2016-May-21 03:33N 67°08' E 013°59'0 0.0
2016-May-21 02:33N 67°08' E 013°59'0 0.0
2016-May-21 01:33N 67°08' E 013°59'0 0.0
2016-May-21 00:33N 67°08' E 013°59'0 0.0
2016-May-20 23:33N 67°08' E 013°59'0 0.0
2016-May-20 22:34N 67°08' E 013°59'0 0.0
2016-May-20 21:33N 67°08' E 013°59'0 0.0
2016-May-20 20:33N 67°08' E 013°59'0 0.0
2016-May-20 19:33N 67°08' E 013°59'4 3.8
2016-May-20 18:33N 67°05' E 014°04'3 2.8
2016-May-20 17:33N 67°07' E 013°59'3 3.0
2016-May-20 16:30N 67°04' E 014°04'3 3.0
2016-May-20 15:33N 67°06' E 013°58'2 1.7
2016-May-20 14:33N 67°05' E 014°01'0 0.3
2016-May-20 13:32N 67°05' E 014°02'3 3.6
2016-May-20 12:33N 67°08' E 013°59'0 0.0
2016-May-20 11:34N 67°08' E 013°59'3 3.4
2016-May-20 10:34N 67°05' E 014°01'1 1.3
2016-May-20 09:33N 67°06' E 013°59'2 2.5
2016-May-20 08:33N 67°08' E 013°59'2 2.1
2016-May-20 07:33N 67°06' E 013°59'3 2.7
2016-May-20 06:33N 67°04' E 014°04'1 1.0
2016-May-20 05:29N 67°05' E 014°02'3 3.7
2016-May-20 04:33N 67°08' E 013°59'0 0.0
2016-May-20 03:33N 67°08' E 013°59'0 0.0
2016-May-20 02:33N 67°08' E 013°59'0 0.0
2016-May-20 01:34N 67°08' E 013°59'0 0.0
2016-May-20 00:33N 67°08' E 013°59'0 0.0
2016-May-19 23:33N 67°08' E 013°59'0 0.0
2016-May-19 22:33N 67°08' E 013°59'0 0.0
2016-May-19 21:33N 67°08' E 013°59'0 0.0
2016-May-19 20:34N 67°08' E 013°59'0 0.0
2016-May-19 19:34N 67°08' E 013°59'4 3.8
2016-May-19 18:31N 67°05' E 014°04'3 3.1
2016-May-19 17:34N 67°07' E 013°59'2 1.9
2016-May-19 16:34N 67°05' E 013°60'3 3.0
2016-May-19 15:34N 67°08' E 013°59'3 3.3
2016-May-19 14:32N 67°05' E 014°02'0 0.1
2016-May-19 13:29N 67°05' E 014°02'3 3.7
2016-May-19 12:33N 67°08' E 013°59'0 0.0
2016-May-19 11:33N 67°08' E 013°59'3 2.5
2016-May-19 10:33N 67°06' E 013°59'0 0.2
2016-May-19 09:34N 67°06' E 013°59'2 2.5
2016-May-19 08:33N 67°08' E 013°59'1 1.4
2016-May-19 07:33N 67°07' E 013°59'3 3.2
2016-May-19 06:33N 67°04' E 014°04'1 1.0
2016-May-19 05:33N 67°05' E 014°02'3 3.5
2016-May-19 04:33N 67°08' E 013°59'0 0.0
2016-May-19 03:33N 67°08' E 013°59'0 0.0
2016-May-19 02:33N 67°08' E 013°59'0 0.0
2016-May-19 01:33N 67°08' E 013°59'0 0.0
2016-May-19 00:34N 67°08' E 013°59'0 0.0
2016-May-18 23:34N 67°08' E 013°59'0 0.0
2016-May-18 22:33N 67°08' E 013°59'0 0.0
2016-May-18 21:33N 67°08' E 013°59'0 0.0
2016-May-18 20:34N 67°08' E 013°59'0 0.0
2016-May-18 19:34N 67°08' E 013°59'4 3.7
2016-May-18 18:33N 67°05' E 014°04'3 2.5
2016-May-18 17:34N 67°07' E 013°59'1 1.4
2016-May-18 16:34N 67°05' E 013°60'3 2.9
2016-May-18 15:34N 67°08' E 013°59'3 3.4
2016-May-18 14:33N 67°05' E 014°02'0 0.4
2016-May-18 13:32N 67°05' E 014°03'4 3.7
2016-May-18 12:34N 67°08' E 013°59'0 0.0
2016-May-18 11:34N 67°08' E 013°59'  
Track history (hours):
 
Tides and Currents Weather Stations Pressure Air Temp Water Temp Dewpoint Dewpoint Depression Visibility Wind Speed Wind Dir Waves Ship Positions

Gildeskaal

Last reported at 2016-May-28 10:33 UTC. Time now 2016-May-29 01:56 UTC.
Position N 66°35' E 012°45'.

Length 52 m; draft 3.2 m.

Type: Ship. MMSI: 259680000.

Date/timePositionNaut miles runAvg speedWind from/ knotsBaromVisibWave heightAir tempDewpointWater temp
2016-May-28 10:33N 66°35' E 012°45'6 5.4
2016-May-28 09:30N 66°36' E 012°59'0 0.1
2016-May-28 06:23N 66°36' E 012°59'5 5.5
2016-May-28 05:30N 66°34' E 012°48'3 0.3
2016-May-27 21:06N 66°36' E 012°44'6 8.6
2016-May-27 20:24N 66°36' E 012°58'2 0.6
2016-May-27 17:15N 66°38' E 012°60'4 5.8
2016-May-27 16:30N 66°34' E 012°54'5 1.0
2016-May-27 11:13N 66°36' E 012°41'6 7.4
2016-May-27 10:26N 66°34' E 012°55'7 0.5
2016-May-26 21:32N 66°33' E 013°12'0 0.1
2016-May-26 20:12N 66°33' E 013°11'2 0.6
2016-May-26 17:04N 66°35' E 013°11'1 0.2
2016-May-26 09:07N 66°34' E 013°11'2 0.1
2016-May-25 21:10N 66°36' E 013°12'1 0.2
2016-May-25 16:16N 66°35' E 013°11'2 1.1
2016-May-25 14:28N 66°33' E 013°12'1 0.2
2016-May-25 09:19N 66°33' E 013°13'3 1.7
2016-May-25 07:22N 66°36' E 013°12'20 1.0
2016-May-24 12:28N 66°54' E 013°27'7 7.6
2016-May-24 11:33N 66°60' E 013°38'9 8.3
2016-May-24 10:29N 67°04' E 013°58'2 2.3
2016-May-24 09:33N 67°06' E 013°58'2 2.2
2016-May-24 08:33N 67°08' E 013°59'2 1.8
2016-May-24 07:33N 67°06' E 013°59'2 0.9
2016-May-24 05:31N 67°05' E 014°02'3 3.6
2016-May-24 04:33N 67°08' E 013°59'0 0.0
2016-May-24 03:33N 67°08' E 013°59'0 0.0
2016-May-24 02:33N 67°08' E 013°59'0 0.0
2016-May-24 01:33N 67°08' E 013°59'0 0.0
2016-May-24 00:33N 67°08' E 013°59'0 0.0
2016-May-23 23:33N 67°08' E 013°59'0 0.0
2016-May-23 22:33N 67°08' E 013°59'0 0.0
2016-May-23 21:33N 67°08' E 013°59'0 0.0
2016-May-23 20:33N 67°08' E 013°59'0 0.0
2016-May-23 19:33N 67°08' E 013°59'4 3.6
2016-May-23 18:28N 67°05' E 014°04'3 2.9
2016-May-23 17:33N 67°07' E 013°59'1 1.4
2016-May-23 16:33N 67°05' E 014°00'3 3.0
2016-May-23 15:33N 67°08' E 013°59'4 2.2
2016-May-23 13:32N 67°04' E 014°04'4 3.9
2016-May-23 12:33N 67°08' E 013°59'2 0.6
2016-May-23 09:34N 67°06' E 013°59'3 2.5
2016-May-23 08:33N 67°08' E 013°59'2 1.6
2016-May-23 07:33N 67°07' E 013°59'2 1.0
2016-May-23 05:29N 67°05' E 014°02'3 3.7
2016-May-23 04:33N 67°08' E 013°59'0 0.0
2016-May-23 03:33N 67°08' E 013°59'0 0.0
2016-May-23 02:33N 67°08' E 013°59'0 0.0
2016-May-23 01:33N 67°08' E 013°59'0 0.0
2016-May-23 00:33N 67°08' E 013°59'0 0.0
2016-May-22 23:33N 67°08' E 013°59'0 0.0
2016-May-22 22:33N 67°08' E 013°59'0 0.0
2016-May-22 21:33N 67°08' E 013°59'0 0.0
2016-May-22 20:33N 67°08' E 013°59'0 0.0
2016-May-22 19:33N 67°08' E 013°59'4 4.2
2016-May-22 18:33N 67°04' E 014°04'1 0.8
2016-May-22 17:26N 67°05' E 014°02'2 2.4
2016-May-22 16:33N 67°07' E 013°59'3 2.5
2016-May-22 15:29N 67°05' E 014°04'4 4.2
2016-May-22 14:33N 67°08' E 013°59'1 1.2
2016-May-22 13:33N 67°07' E 013°59'3 0.6
2016-May-22 08:32N 67°05' E 014°03'3 2.5
2016-May-22 07:33N 67°07' E 013°59'1 0.1
2016-May-21 15:33N 67°05' E 014°00'0 0.4
2016-May-21 14:33N 67°05' E 014°01'1 0.2
2016-May-21 09:33N 67°06' E 013°59'3 2.5
2016-May-21 08:33N 67°08' E 013°59'1 1.4
2016-May-21 07:33N 67°07' E 013°59'2 2.0
2016-May-21 06:29N 67°05' E 014°01'3 3.8
2016-May-21 05:33N 67°08' E 013°59'0 0.0
2016-May-21 04:33N 67°08' E 013°59'0 0.0
2016-May-21 03:33N 67°08' E 013°59'0 0.0
2016-May-21 02:33N 67°08' E 013°59'0 0.0
2016-May-21 01:33N 67°08' E 013°59'0 0.0
2016-May-21 00:33N 67°08' E 013°59'0 0.0
2016-May-20 23:33N 67°08' E 013°59'0 0.0
2016-May-20 22:34N 67°08' E 013°59'0 0.0
2016-May-20 21:33N 67°08' E 013°59'0 0.0
2016-May-20 20:33N 67°08' E 013°59'0 0.0
2016-May-20 19:33N 67°08' E 013°59'4 3.8
2016-May-20 18:33N 67°05' E 014°04'3 2.8
2016-May-20 17:33N 67°07' E 013°59'3 3.0
2016-May-20 16:30N 67°04' E 014°04'3 3.0
2016-May-20 15:33N 67°06' E 013°58'2 1.7
2016-May-20 14:33N 67°05' E 014°01'0 0.3
2016-May-20 13:32N 67°05' E 014°02'3 3.6
2016-May-20 12:33N 67°08' E 013°59'0 0.0
2016-May-20 11:34N 67°08' E 013°59'3 3.4
2016-May-20 10:34N 67°05' E 014°01'1 1.3
2016-May-20 09:33N 67°06' E 013°59'2 2.5
2016-May-20 08:33N 67°08' E 013°59'2 2.1
2016-May-20 07:33N 67°06' E 013°59'3 2.7
2016-May-20 06:33N 67°04' E 014°04'1 1.0
2016-May-20 05:29N 67°05' E 014°02'3 3.7
2016-May-20 04:33N 67°08' E 013°59'0 0.0
2016-May-20 03:33N 67°08' E 013°59'0 0.0
2016-May-20 02:33N 67°08' E 013°59'0 0.0
2016-May-20 01:34N 67°08' E 013°59'0 0.0
2016-May-20 00:33N 67°08' E 013°59'0 0.0
2016-May-19 23:33N 67°08' E 013°59'0 0.0
2016-May-19 22:33N 67°08' E 013°59'0 0.0
2016-May-19 21:33N 67°08' E 013°59'0 0.0
2016-May-19 20:34N 67°08' E 013°59'0 0.0
2016-May-19 19:34N 67°08' E 013°59'4 3.8
2016-May-19 18:31N 67°05' E 014°04'3 3.1
2016-May-19 17:34N 67°07' E 013°59'2 1.9
2016-May-19 16:34N 67°05' E 013°60'3 3.0
2016-May-19 15:34N 67°08' E 013°59'3 3.3
2016-May-19 14:32N 67°05' E 014°02'0 0.1
2016-May-19 13:29N 67°05' E 014°02'3 3.7
2016-May-19 12:33N 67°08' E 013°59'0 0.0
2016-May-19 11:33N 67°08' E 013°59'3 2.5
2016-May-19 10:33N 67°06' E 013°59'0 0.2
2016-May-19 09:34N 67°06' E 013°59'2 2.5
2016-May-19 08:33N 67°08' E 013°59'1 1.4
2016-May-19 07:33N 67°07' E 013°59'3 3.2
2016-May-19 06:33N 67°04' E 014°04'1 1.0
2016-May-19 05:33N 67°05' E 014°02'3 3.5
2016-May-19 04:33N 67°08' E 013°59'0 0.0
2016-May-19 03:33N 67°08' E 013°59'0 0.0
2016-May-19 02:33N 67°08' E 013°59'0 0.0
2016-May-19 01:33N 67°08' E 013°59'0 0.0
2016-May-19 00:34N 67°08' E 013°59'0 0.0
2016-May-18 23:34N 67°08' E 013°59'0 0.0
2016-May-18 22:33N 67°08' E 013°59'0 0.0
2016-May-18 21:33N 67°08' E 013°59'0 0.0
2016-May-18 20:34N 67°08' E 013°59'0 0.0
2016-May-18 19:34N 67°08' E 013°59'4 3.7
2016-May-18 18:33N 67°05' E 014°04'3 2.5
2016-May-18 17:34N 67°07' E 013°59'1 1.4
2016-May-18 16:34N 67°05' E 013°60'3 2.9
2016-May-18 15:34N 67°08' E 013°59'3 3.4
2016-May-18 14:33N 67°05' E 014°02'0 0.4
2016-May-18 13:32N 67°05' E 014°03'4 3.7
2016-May-18 12:34N 67°08' E 013°59'0 0.0
2016-May-18 11:34N 67°08' E 013°59'  

Dump ship's entire track history